Luis Beltran, Argentina
Current Conditions -  °F | °C
As of 2:00 AM on Sunday 26 Oct 2014 (Local Time) from SAZN Reporting Station
Clear Clear  
Wind Chill: 57°   Ceiling: Unl
Heat Index: 57°   Visibility: 6mi
Dew Point: 52°   Wind: 2mph
Humidity: 82%   Direction: 50°NE
Pressure: 29.8"   Gusts: NA
Location:  39.31°S, 65.76°W
Report Text: SAZN 260500Z 05002KT CAVOK 14/11 Q1009
Loading
Personal Weather Stations






























Interactive Weather Map
Tropical Storm Tracking
New forecast layout! Learn more

10-Day Weather Forecast

Advertisements
Track Severe Weather on mobile